createdAt,value
2022-11-14T00:08:21.073Z,5.38
2022-11-14T00:15:47.305Z,5.30
2022-11-14T00:25:47.133Z,4.94
2022-11-14T00:28:13.999Z,4.92
2022-11-14T00:30:40.498Z,4.74
2022-11-14T00:33:07.075Z,4.65
2022-11-14T00:35:33.554Z,4.79
2022-11-14T00:38:00.042Z,4.73
2022-11-14T00:40:26.606Z,4.75
2022-11-14T00:42:53.107Z,4.70
2022-11-14T00:45:19.630Z,4.56
2022-11-14T00:47:46.092Z,4.44
2022-11-14T00:50:12.570Z,4.37
2022-11-14T00:52:39.081Z,4.18
2022-11-14T00:55:06.362Z,4.05
2022-11-14T00:57:32.903Z,4.20
2022-11-14T00:59:59.425Z,4.16
2022-11-14T01:02:25.930Z,3.95
2022-11-14T01:04:52.988Z,3.98
2022-11-14T01:07:19.519Z,3.96
2022-11-14T01:09:45.996Z,4.00
2022-11-14T01:12:12.498Z,4.23
2022-11-14T01:14:40.620Z,4.37
2022-11-14T01:17:07.800Z,4.39
2022-11-14T01:19:34.481Z,4.47
2022-11-14T01:22:05.967Z,4.36
2022-11-14T01:24:33.880Z,4.52
2022-11-14T01:27:00.443Z,4.54
2022-11-14T01:29:27.255Z,4.54
2022-11-14T01:31:53.745Z,4.35
2022-11-14T01:34:20.251Z,4.23
2022-11-14T01:36:46.737Z,4.13
2022-11-14T01:39:13.190Z,4.23
2022-11-14T01:41:39.916Z,4.06
2022-11-14T01:44:14.242Z,4.11
2022-11-14T01:46:45.499Z,4.28
2022-11-14T01:49:25.949Z,4.45
2022-11-14T01:52:04.653Z,4.50
2022-11-14T01:54:36.004Z,4.35
2022-11-14T01:57:03.873Z,4.11
2022-11-14T01:59:39.873Z,3.92
2022-11-14T02:02:15.433Z,3.70
2022-11-14T02:04:46.104Z,3.45
2022-11-14T02:07:13.205Z,3.40
2022-11-14T02:09:44.240Z,3.10
2022-11-14T02:12:14.799Z,2.82
2022-11-14T02:14:45.264Z,2.67
2022-11-14T02:17:30.665Z,2.74
2022-11-14T02:20:05.328Z,2.79
2022-11-14T02:22:32.473Z,2.85
2022-11-14T02:24:59.059Z,2.83
2022-11-14T02:27:25.644Z,2.78
2022-11-14T02:29:52.293Z,2.80
2022-11-14T02:32:18.848Z,2.56
2022-11-14T02:34:45.339Z,2.73
2022-11-14T02:37:11.835Z,2.95
2022-11-14T02:39:39.045Z,3.21
2022-11-14T02:42:05.645Z,3.42
2022-11-14T02:44:32.172Z,3.14
2022-11-14T02:46:58.678Z,3.12
2022-11-14T02:49:25.152Z,3.33
2022-11-14T02:51:51.616Z,3.64
2022-11-14T02:54:18.124Z,3.77
2022-11-14T02:56:44.571Z,4.00
2022-11-14T02:59:11.037Z,4.18
2022-11-14T03:01:37.614Z,4.23
2022-11-14T03:04:04.403Z,4.21
2022-11-14T03:06:30.886Z,4.20
2022-11-14T03:08:57.356Z,4.19
2022-11-14T03:11:23.840Z,4.15
2022-11-14T03:21:17.473Z,3.94
2022-11-14T03:23:45.505Z,3.75
2022-11-14T03:29:17.457Z,2.97
2022-11-14T03:31:49.685Z,2.86
2022-11-14T03:34:16.251Z,2.88
2022-11-14T03:36:42.846Z,2.83
2022-11-14T03:39:09.485Z,2.74
2022-11-14T03:41:35.979Z,2.52
2022-11-14T03:44:14.678Z,2.51
2022-11-14T03:46:44.613Z,2.31
2022-11-14T03:50:12.394Z,2.14
2022-11-14T03:53:26.494Z,1.96
2022-11-14T04:05:02.088Z,1.91
2022-11-14T04:07:28.697Z,1.96
2022-11-14T04:09:55.264Z,1.94
2022-11-14T04:13:22.948Z,1.62
2022-11-14T04:41:17.368Z,0.80
2022-11-14T04:46:26.661Z,0.89
2022-11-14T04:52:09.025Z,0.81
2022-11-14T05:01:56.825Z,0.68
2022-11-14T05:04:23.347Z,0.70
2022-11-14T05:10:50.175Z,0.38
2022-11-14T05:13:16.669Z,0.57
2022-11-14T05:15:43.135Z,0.46
2022-11-14T05:18:09.606Z,0.45
2022-11-14T05:20:36.121Z,0.42
2022-11-14T05:23:02.676Z,0.44
2022-11-14T05:25:29.306Z,0.57
2022-11-14T05:28:36.637Z,0.43
2022-11-14T05:34:43.292Z,0.44
2022-11-14T05:37:18.294Z,0.39
2022-11-14T05:39:47.694Z,0.38
2022-11-14T05:42:19.456Z,0.45
2022-11-14T05:44:53.797Z,0.33
2022-11-14T05:47:25.442Z,0.31
2022-11-14T05:52:54.030Z,0.34
2022-11-14T05:55:24.539Z,0.26
2022-11-14T05:57:51.406Z,0.26
2022-11-14T06:00:18.136Z,0.28
2022-11-14T06:02:46.147Z,0.39
2022-11-14T06:05:12.633Z,0.48
2022-11-14T06:07:39.207Z,0.61
2022-11-14T06:10:06.198Z,0.54
2022-11-14T06:12:32.762Z,0.54
2022-11-14T06:14:59.241Z,0.68
2022-11-14T06:17:25.698Z,0.58
2022-11-14T06:19:52.151Z,0.60
2022-11-14T06:22:18.596Z,0.63
2022-11-14T06:24:45.209Z,0.63
2022-11-14T06:27:11.641Z,0.67
2022-11-14T06:29:38.145Z,0.70
2022-11-14T06:32:04.870Z,0.78
2022-11-14T06:34:31.470Z,0.77
2022-11-14T06:36:58.006Z,0.83
2022-11-14T06:39:24.566Z,0.94
2022-11-14T06:41:51.066Z,0.93
2022-11-14T06:44:17.980Z,0.98
2022-11-14T06:46:44.466Z,1.07
2022-11-14T06:49:10.997Z,1.03
2022-11-14T06:51:37.517Z,1.98
2022-11-14T06:54:04.242Z,3.08
2022-11-14T07:00:18.735Z,2.01
2022-11-14T07:02:48.693Z,1.96
2022-11-14T07:05:15.554Z,1.78
2022-11-14T07:07:42.036Z,1.72
2022-11-14T07:10:08.940Z,1.80
2022-11-14T07:12:35.481Z,1.75
2022-11-14T07:18:03.913Z,1.81
2022-11-14T07:21:02.795Z,1.82
2022-11-14T07:23:30.292Z,1.81
2022-11-14T07:26:00.783Z,1.99
2022-11-14T07:28:28.173Z,2.58
2022-11-14T07:31:05.617Z,3.21
2022-11-14T07:33:32.778Z,3.65
2022-11-14T07:35:59.392Z,3.92
2022-11-14T07:38:25.869Z,4.28
2022-11-14T07:40:59.634Z,4.44
2022-11-14T07:43:27.290Z,4.65
2022-11-14T07:45:53.845Z,4.81
2022-11-14T07:48:21.892Z,5.19
2022-11-14T07:50:48.382Z,5.81
2022-11-14T07:53:15.575Z,6.54
2022-11-14T07:55:42.151Z,7.64
2022-11-14T07:58:08.632Z,8.32
2022-11-14T08:00:35.639Z,8.46
2022-11-14T08:04:31.294Z,9.55
2022-11-14T08:06:57.829Z,10.51
2022-11-14T08:09:30.274Z,10.90
2022-11-14T08:11:56.794Z,12.19
2022-11-14T08:14:23.281Z,11.70
2022-11-14T08:16:50.431Z,11.32
2022-11-14T08:19:17.623Z,11.87
2022-11-14T08:21:44.850Z,12.90
2022-11-14T08:24:11.634Z,14.35
2022-11-14T08:26:47.926Z,15.85
2022-11-14T08:29:14.627Z,16.99
2022-11-14T08:32:22.436Z,17.45
2022-11-14T08:35:05.071Z,20.08
2022-11-14T08:40:35.362Z,20.76
2022-11-14T08:43:55.566Z,21.09
2022-11-14T08:46:34.101Z,21.32
2022-11-14T08:49:00.696Z,21.89
2022-11-14T08:51:51.825Z,21.42
2022-11-14T08:58:04.895Z,22.99
2022-11-14T09:08:53.821Z,23.56
2022-11-14T09:24:58.346Z,25.16
2022-11-14T09:27:58.447Z,24.98
2022-11-14T09:30:30.036Z,24.61
2022-11-14T09:33:00.903Z,26.32
2022-11-14T09:35:28.284Z,25.11
2022-11-14T09:38:06.494Z,25.56
2022-11-14T09:41:08.234Z,25.16
2022-11-14T09:44:20.118Z,25.36
2022-11-14T09:46:53.856Z,24.98
2022-11-14T09:49:40.248Z,25.98
2022-11-14T09:52:35.093Z,24.34
2022-11-14T09:55:10.677Z,22.72
2022-11-14T09:57:37.317Z,21.93
2022-11-14T10:01:09.396Z,19.55
2022-11-14T10:04:05.827Z,19.18
2022-11-14T10:06:50.546Z,18.82
2022-11-14T10:09:59.281Z,18.41
2022-11-14T10:12:45.204Z,18.08
2022-11-14T10:15:34.041Z,17.21
2022-11-14T10:18:28.010Z,16.40
2022-11-14T10:33:08.871Z,16.00
2022-11-14T10:36:00.333Z,18.03
2022-11-14T10:38:43.692Z,18.56
2022-11-14T10:41:19.218Z,18.97
2022-11-14T10:43:55.425Z,20.61
2022-11-14T10:46:53.801Z,21.22
2022-11-14T10:53:33.161Z,19.01
2022-11-14T10:56:04.662Z,19.42
2022-11-14T10:59:34.338Z,18.21
2022-11-14T11:02:00.811Z,17.95
2022-11-14T11:04:32.491Z,17.91
2022-11-14T11:07:44.336Z,17.51
2022-11-14T11:10:41.724Z,16.90
2022-11-14T11:13:13.960Z,16.05
2022-11-14T11:15:41.808Z,15.48
2022-11-14T11:18:34.495Z,15.19
2022-11-14T11:21:12.861Z,15.10
2022-11-14T11:24:08.938Z,14.81
2022-11-14T11:26:35.462Z,14.95
2022-11-14T11:29:05.487Z,14.93
2022-11-14T11:31:47.137Z,14.71
2022-11-14T11:34:13.694Z,14.88
2022-11-14T11:36:53.806Z,15.18
2022-11-14T11:39:26.561Z,15.07
2022-11-14T11:45:17.452Z,15.64
2022-11-14T11:48:01.808Z,15.59
2022-11-14T11:51:03.382Z,15.18
2022-11-14T11:53:36.643Z,15.40
2022-11-14T11:56:15.469Z,16.39
2022-11-14T11:58:48.931Z,17.19
2022-11-14T12:01:16.160Z,17.05
2022-11-14T12:03:50.243Z,17.24
2022-11-14T12:06:54.459Z,19.40
2022-11-14T12:09:42.466Z,18.29
2022-11-14T12:16:23.733Z,18.93
2022-11-14T12:30:43.327Z,16.93
2022-11-14T12:33:33.689Z,17.60
2022-11-14T12:36:02.886Z,17.70
2022-11-14T12:38:42.165Z,19.44
2022-11-14T12:41:09.684Z,19.92
2022-11-14T12:43:42.881Z,19.76
2022-11-14T12:46:11.740Z,20.83
2022-11-14T12:48:42.371Z,20.90
2022-11-14T12:51:24.145Z,20.75
2022-11-14T12:53:51.347Z,18.81
2022-11-14T12:56:33.033Z,18.75
2022-11-14T12:59:14.674Z,17.40
2022-11-14T13:01:53.489Z,17.12
2022-11-14T13:04:43.609Z,16.86
2022-11-14T13:07:48.959Z,16.76
2022-11-14T13:14:14.662Z,15.91
2022-11-14T13:16:59.709Z,16.04
2022-11-14T13:26:45.581Z,16.27
2022-11-14T13:33:02.672Z,16.01
2022-11-14T13:35:49.023Z,16.04
2022-11-14T13:42:02.150Z,15.94
2022-11-14T13:44:53.408Z,15.79
2022-11-14T13:51:36.693Z,15.28
2022-11-14T13:53:59.588Z,15.18
2022-11-14T13:56:48.333Z,15.04
2022-11-14T13:59:36.254Z,14.95
2022-11-14T14:02:11.687Z,14.71
2022-11-14T14:08:36.446Z,14.54
2022-11-14T14:11:23.179Z,14.38
2022-11-14T14:14:01.924Z,14.27
2022-11-14T14:16:52.809Z,14.16
2022-11-14T14:23:18.125Z,13.99
2022-11-14T14:29:43.815Z,13.42
2022-11-14T14:32:13.254Z,13.14
2022-11-14T14:38:29.255Z,12.95
2022-11-14T14:40:56.539Z,12.86
2022-11-14T14:47:21.372Z,12.59
2022-11-14T14:49:47.955Z,12.30
2022-11-14T14:52:31.757Z,12.35
2022-11-14T14:55:02.227Z,12.06
2022-11-14T14:57:30.394Z,12.01
2022-11-14T15:00:07.668Z,11.92
2022-11-14T15:02:37.466Z,11.86
2022-11-14T15:05:05.243Z,11.77
2022-11-14T15:07:31.863Z,11.62
2022-11-14T15:13:46.548Z,11.21
2022-11-14T15:16:13.383Z,11.04
2022-11-14T15:18:40.228Z,10.89
2022-11-14T15:21:28.069Z,10.63
2022-11-14T15:24:00.319Z,10.55
2022-11-14T15:26:28.662Z,10.35
2022-11-14T15:29:05.897Z,10.26
2022-11-14T15:31:35.972Z,10.14
2022-11-14T15:34:04.294Z,10.06
2022-11-14T15:36:30.907Z,9.98
2022-11-14T15:38:59.962Z,9.88
2022-11-14T15:41:30.304Z,9.68
2022-11-14T15:44:05.190Z,9.49
2022-11-14T15:46:35.286Z,9.34
2022-11-14T15:49:07.006Z,9.20
2022-11-14T15:52:20.202Z,9.06
2022-11-14T15:54:46.669Z,8.92
2022-11-14T15:57:14.864Z,8.74
2022-11-14T15:59:41.392Z,8.65
2022-11-14T16:02:16.038Z,8.52
2022-11-14T16:04:47.484Z,8.44
2022-11-14T16:07:16.459Z,8.35
2022-11-14T16:09:43.115Z,8.15
2022-11-14T16:12:09.665Z,8.03
2022-11-14T16:14:36.515Z,7.79
2022-11-14T16:17:03.775Z,7.71
2022-11-14T16:19:30.541Z,7.61
2022-11-14T16:22:02.792Z,7.46
2022-11-14T16:24:33.828Z,7.49
2022-11-14T16:27:00.921Z,7.35
2022-11-14T16:29:27.505Z,7.18
2022-11-14T16:31:55.334Z,7.01
2022-11-14T16:34:26.571Z,6.83
2022-11-14T16:37:02.101Z,6.79
2022-11-14T16:39:29.265Z,6.63
2022-11-14T16:42:02.790Z,6.60
2022-11-14T16:44:29.857Z,6.78
2022-11-14T16:46:56.534Z,6.45
2022-11-14T16:49:23.612Z,6.44
2022-11-14T16:51:51.431Z,6.20
2022-11-14T16:54:19.423Z,6.12
2022-11-14T16:56:46.524Z,6.02
2022-11-14T16:59:13.245Z,6.12
2022-11-14T17:01:40.069Z,6.07
2022-11-14T17:04:06.599Z,5.86
2022-11-14T17:06:33.700Z,5.68
2022-11-14T17:09:00.885Z,5.70
2022-11-14T17:11:28.425Z,5.57
2022-11-14T17:13:56.591Z,5.47
2022-11-14T17:16:23.667Z,5.38
2022-11-14T17:18:54.570Z,5.22
2022-11-14T17:21:21.883Z,5.13
2022-11-14T17:24:03.160Z,5.00
2022-11-14T17:26:29.872Z,4.97
2022-11-14T17:28:56.607Z,4.93
2022-11-14T17:31:23.157Z,4.93
2022-11-14T17:33:54.461Z,4.93
2022-11-14T17:36:22.902Z,4.92
2022-11-14T17:38:49.514Z,4.83
2022-11-14T17:41:16.155Z,4.87
2022-11-14T17:43:43.379Z,4.82
2022-11-14T17:46:15.991Z,4.83
2022-11-14T17:48:44.251Z,4.80
2022-11-14T17:51:13.654Z,4.84
2022-11-14T17:53:40.763Z,4.73
2022-11-14T17:56:11.856Z,4.68
2022-11-14T17:58:38.313Z,4.63
2022-11-14T18:01:31.704Z,4.60
2022-11-14T18:04:01.750Z,4.48
2022-11-14T18:06:31.113Z,4.38
2022-11-14T18:08:57.681Z,4.36
2022-11-14T18:11:24.232Z,4.15
2022-11-14T18:13:55.172Z,4.14
2022-11-14T18:16:22.670Z,4.12
2022-11-14T18:18:49.165Z,4.04
2022-11-14T18:21:19.550Z,4.06
2022-11-14T18:23:56.586Z,3.97
2022-11-14T18:26:28.795Z,3.99
2022-11-14T18:28:56.723Z,3.95
2022-11-14T18:31:23.769Z,3.93
2022-11-14T18:33:50.746Z,3.80
2022-11-14T18:36:17.948Z,3.69
2022-11-14T18:38:45.170Z,3.84
2022-11-14T18:41:17.974Z,3.86
2022-11-14T18:43:45.551Z,3.90
2022-11-14T18:46:17.065Z,3.94
2022-11-14T18:48:46.816Z,3.79
2022-11-14T18:51:14.849Z,3.75
2022-11-14T18:53:41.475Z,3.75
2022-11-14T18:56:10.512Z,3.69
2022-11-14T18:58:39.731Z,3.68
2022-11-14T19:01:32.489Z,3.62
2022-11-14T19:04:00.577Z,3.64
2022-11-14T19:06:27.275Z,3.53
2022-11-14T19:09:03.577Z,3.46
2022-11-14T19:11:52.527Z,3.43
2022-11-14T19:14:20.027Z,3.38
2022-11-14T19:16:46.937Z,3.45
2022-11-14T19:19:15.079Z,3.60
2022-11-14T19:21:41.792Z,3.60
2022-11-14T19:24:08.987Z,3.71
2022-11-14T19:26:35.580Z,3.54
2022-11-14T19:29:04.335Z,3.41
2022-11-14T19:31:31.169Z,3.27
2022-11-14T19:33:57.633Z,3.21
2022-11-14T19:36:59.518Z,3.30
2022-11-14T19:39:10.686Z,3.22
2022-11-14T19:41:37.317Z,3.20
2022-11-14T19:44:03.958Z,3.12
2022-11-14T19:46:30.463Z,3.15
2022-11-14T19:48:58.358Z,2.97
2022-11-14T19:51:25.561Z,2.79
2022-11-14T19:53:55.717Z,2.85
2022-11-14T19:56:22.698Z,2.91
2022-11-14T19:58:51.126Z,3.01
2022-11-14T20:01:23.519Z,2.96
2022-11-14T20:03:54.942Z,2.91
2022-11-14T20:06:26.234Z,2.71
2022-11-14T20:08:54.339Z,2.69
2022-11-14T20:11:21.651Z,2.78
2022-11-14T20:13:48.646Z,2.73
2022-11-14T20:16:20.781Z,2.69
2022-11-14T20:18:59.277Z,2.74
2022-11-14T20:21:27.861Z,2.69
2022-11-14T20:23:54.546Z,2.79
2022-11-14T20:26:22.034Z,2.74
2022-11-14T20:28:51.956Z,2.75
2022-11-14T20:31:21.098Z,2.78
2022-11-14T20:33:49.063Z,2.76
2022-11-14T20:36:19.019Z,2.85
2022-11-14T20:38:45.609Z,3.05
2022-11-14T20:41:12.649Z,2.95
2022-11-14T20:43:39.988Z,2.99
2022-11-14T20:46:12.396Z,3.04
2022-11-14T20:48:39.549Z,3.05
2022-11-14T20:51:28.247Z,3.08
2022-11-14T20:53:55.389Z,3.02
2022-11-14T20:56:23.162Z,2.93
2022-11-14T20:58:52.115Z,3.02
2022-11-14T21:01:19.190Z,2.88
2022-11-14T21:03:46.965Z,2.77
2022-11-14T21:06:16.213Z,2.76
2022-11-14T21:08:43.251Z,2.89
2022-11-14T21:11:14.073Z,2.86
2022-11-14T21:13:59.234Z,2.78
2022-11-14T21:16:30.755Z,2.72
2022-11-14T21:18:58.159Z,2.72
2022-11-14T21:21:27.384Z,2.69
2022-11-14T21:23:55.049Z,2.56
2022-11-14T21:26:21.534Z,2.47
2022-11-14T21:28:51.590Z,2.48
2022-11-14T21:31:23.900Z,2.44
2022-11-14T21:33:54.685Z,2.35
2022-11-14T21:39:07.806Z,2.38
2022-11-14T21:41:34.299Z,2.27
2022-11-14T21:44:02.930Z,2.23
2022-11-14T21:46:29.493Z,2.19
2022-11-14T21:48:57.247Z,2.26
2022-11-14T21:51:28.309Z,2.16
2022-11-14T21:53:58.578Z,2.12
2022-11-14T21:56:30.016Z,2.14
2022-11-14T21:59:12.772Z,2.16
2022-11-14T22:01:58.906Z,1.96
2022-11-14T22:04:25.987Z,1.94
2022-11-14T22:06:52.840Z,1.96
2022-11-14T22:09:19.660Z,1.90
2022-11-14T22:11:46.688Z,1.82
2022-11-14T22:14:13.162Z,1.89
2022-11-14T22:16:40.047Z,1.88
2022-11-14T22:19:06.884Z,1.83
2022-11-14T22:21:33.396Z,1.77
2022-11-14T22:24:00.717Z,1.77
2022-11-14T22:26:27.184Z,1.66
2022-11-14T22:28:53.703Z,1.66
2022-11-14T22:31:22.931Z,1.65
2022-11-14T22:33:51.997Z,1.53
2022-11-14T22:36:21.017Z,1.51
2022-11-14T22:38:48.607Z,1.40
2022-11-14T22:41:31.878Z,1.54
2022-11-14T22:43:59.168Z,1.47
2022-11-14T22:46:25.647Z,1.51
2022-11-14T22:48:52.202Z,1.62
2022-11-14T22:51:21.187Z,1.47
2022-11-14T22:53:50.173Z,1.37
2022-11-14T22:56:18.767Z,1.37
2022-11-14T22:58:45.971Z,1.33
2022-11-14T23:01:26.522Z,1.16
2022-11-14T23:04:00.860Z,1.19
2022-11-14T23:06:28.502Z,1.16
2022-11-14T23:08:55.384Z,1.22
2022-11-14T23:11:24.633Z,1.16
2022-11-14T23:13:53.191Z,1.08
2022-11-14T23:16:22.367Z,0.96
2022-11-14T23:18:49.738Z,0.96
2022-11-14T23:21:19.003Z,0.95
2022-11-14T23:23:45.555Z,0.90
2022-11-14T23:26:17.052Z,0.79
2022-11-14T23:28:43.633Z,0.81
2022-11-14T23:31:11.443Z,0.87
2022-11-14T23:33:38.238Z,0.91
2022-11-14T23:36:05.172Z,0.87
2022-11-14T23:38:31.708Z,0.88
2022-11-14T23:41:01.359Z,0.85
2022-11-14T23:43:29.580Z,1.01
2022-11-14T23:45:56.938Z,0.94
2022-11-14T23:48:23.725Z,0.96
2022-11-14T23:50:54.818Z,0.88
2022-11-14T23:53:22.244Z,0.72
2022-11-14T23:55:52.905Z,0.64
2022-11-14T23:58:20.260Z,0.66
